Back to Top

Language: 

My Weather Underground Personal Weather Station Historical Data with Graphs...

Delerius Weather Station Historical Data
Daily Summary for January 11, 2018 Units:  Metric    English   Both
« Previous Day
Next Day »
Daily Weekly Monthly Yearly Custom
  High: Low: Average:
Temperature: 7.6 °C 4.9 °C 6.1 °C
Dew Point: 5.8 °C 3.8 °C 4.9 °C
Humidity: 96 % 85 % 92 %
Wind Speed: 12.9 km/h 0 km/h 3.1 km/h
Wind Gust: 19.3 km/h - -
Wind:- - WNW
Pressure: 1026.3 hPa 1010 hPa -
Precipitation: 0.25 mm    
Historical Graphs
 
 
Tabular Data for January 11, 2018
Time Temperature Dew Point Pressure Wind Wind Speed Wind Gust Humidity Rainfall Rate (Hourly) solar Conditions
00:09 5.2 °C 4.2 °C 1010 hPa NW 1.6 km/h 8 km/h 93 % 0 mm 0 W/m2
00:18 5.2 °C 4.2 °C 1010.4 hPa WNW 4.8 km/h 9.7 km/h 93 % 0 mm 0 W/m2
00:23 5.2 °C 4.2 °C 1010.4 hPa NW 1.6 km/h 6.4 km/h 93 % 0 mm 0 W/m2
00:52 5.2 °C 4.2 °C 1010.7 hPa Calm   1.6 km/h 93 % 0 mm 0 W/m2
01:23 5.2 °C 4.2 °C 1011.1 hPa NW 3.2 km/h 8 km/h 93 % 0 mm 0 W/m2
01:28 5.2 °C 4.2 °C 1011.1 hPa NW 1.6 km/h 4.8 km/h 93 % 0 mm 0 W/m2
01:48 5.2 °C 4.2 °C 1011.4 hPa Calm   6.4 km/h 93 % 0 mm 0 W/m2
02:08 5.2 °C 4.2 °C 1011.4 hPa NW 3.2 km/h 9.7 km/h 93 % 0 mm 0 W/m2
02:17 5.2 °C 4.2 °C 1011.7 hPa NW 3.2 km/h 8 km/h 93 % 0 mm 0 W/m2
02:35 5.2 °C 4.2 °C 1012.1 hPa NW 3.2 km/h 11.3 km/h 93 % 0 mm 0 W/m2
02:40 5.2 °C 4.2 °C 1012.1 hPa NW 1.6 km/h 6.4 km/h 93 % 0 mm 0 W/m2
02:49 5.2 °C 4.2 °C 1012.1 hPa NW 3.2 km/h 8 km/h 93 % 0 mm 0 W/m2
02:57 5.2 °C 4.2 °C 1012.4 hPa Calm   3.2 km/h 93 % 0 mm 0 W/m2
03:09 5.2 °C 4.2 °C 1012.4 hPa NW 3.2 km/h 8 km/h 93 % 0 mm 0 W/m2
03:18 5.2 °C 4.2 °C 1012.4 hPa Calm     93 % 0 mm 0 W/m2
03:31 5.2 °C 4.2 °C 1012.8 hPa Calm   3.2 km/h 93 % 0 mm 0 W/m2
03:36 5.2 °C 4.2 °C 1012.8 hPa Calm   1.6 km/h 93 % 0 mm 0 W/m2
03:41 5.2 °C 4.2 °C 1012.8 hPa NW 3.2 km/h 9.7 km/h 93 % 0 mm 0 W/m2
03:46 5.2 °C 4.2 °C 1012.8 hPa WNW 1.6 km/h 6.4 km/h 93 % 0 mm 0 W/m2
03:55 5.2 °C 4.2 °C 1012.8 hPa WNW 1.6 km/h 3.2 km/h 93 % 0 mm 0 W/m2
04:06 5.2 °C 4.2 °C 1013.1 hPa WNW 1.6 km/h 3.2 km/h 93 % 0 mm 0 W/m2
04:11 5.2 °C 4.2 °C 1013.1 hPa WNW 1.6 km/h 3.2 km/h 93 % 0 mm 0 W/m2
04:16 5.2 °C 4.2 °C 1013.1 hPa Calm   1.6 km/h 93 % 0 mm 0 W/m2
04:25 5.2 °C 4.2 °C 1013.4 hPa Calm   1.6 km/h 93 % 0 mm 0 W/m2
04:33 5.1 °C 4.1 °C 1013.4 hPa WNW 1.6 km/h 3.2 km/h 93 % 0 mm 0 W/m2
04:38 5.1 °C 4.1 °C 1013.8 hPa Calm     93 % 0 mm 0 W/m2
04:43 5.1 °C 4.1 °C 1013.8 hPa Calm     93 % 0 mm 0 W/m2
04:50 5.1 °C 4.1 °C 1013.8 hPa WNW 1.6 km/h 4.8 km/h 93 % 0 mm 0 W/m2
04:58 5.1 °C 4.1 °C 1013.8 hPa WNW 1.6 km/h 6.4 km/h 93 % 0 mm 0 W/m2
05:13 5.1 °C 4.1 °C 1014.1 hPa Calm     93 % 0 mm 0 W/m2
05:39 5.1 °C 4.1 °C 1014.8 hPa Calm     93 % 0 mm 0 W/m2
05:44 5 °C 3.9 °C 1014.8 hPa Calm     93 % 0 mm 0 W/m2
05:49 5 °C 3.8 °C 1014.8 hPa Calm     92 % 0 mm 0 W/m2
05:56 5 °C 3.9 °C 1015.1 hPa Calm     93 % 0 mm 0 W/m2
06:06 4.9 °C 3.9 °C 1015.1 hPa Calm     93 % 0 mm 0 W/m2
06:11 5 °C 3.9 °C 1015.5 hPa Calm   4.8 km/h 93 % 0 mm 0 W/m2
06:16 5 °C 3.9 °C 1015.5 hPa NW 1.6 km/h 6.4 km/h 93 % 0 mm 0 W/m2
06:24 5.1 °C 4.1 °C 1015.8 hPa NNW 1.6 km/h 6.4 km/h 93 % 0 mm 0 W/m2
06:30 5.2 °C 4.2 °C 1015.8 hPa NNW 4.8 km/h 11.3 km/h 93 % 0 mm 0 W/m2
06:36 5.3 °C 4.3 °C 1015.8 hPa Calm   1.6 km/h 93 % 0 mm 0 W/m2
06:41 5.3 °C 4.3 °C 1015.8 hPa Calm   3.2 km/h 93 % 0 mm 0 W/m2
06:50 5.3 °C 4.3 °C 1016.1 hPa NNW 3.2 km/h 8 km/h 93 % 0 mm 0 W/m2
07:08 5.4 °C 4.3 °C 1016.5 hPa NNW 1.6 km/h 4.8 km/h 93 % 0 mm 0 W/m2
07:16 5.5 °C 4.3 °C 1016.5 hPa NNW 1.6 km/h 4.8 km/h 92 % 0 mm 0 W/m2
07:21 5.5 °C 4.3 °C 1016.5 hPa NNW 1.6 km/h 4.8 km/h 92 % 0 mm 0 W/m2
07:26 5.5 °C 4.4 °C 1016.5 hPa NNW 3.2 km/h 8 km/h 93 % 0 mm 0 W/m2
07:43 5.5 °C 4.4 °C 1016.8 hPa Calm   1.6 km/h 93 % 0 mm 0 W/m2
07:48 5.5 °C 4.4 °C 1016.8 hPa NW 1.6 km/h 3.2 km/h 93 % 0 mm 0 W/m2
07:54 5.5 °C 4.4 °C 1016.8 hPa Calm   3.2 km/h 93 % 0 mm 0 W/m2
07:59 5.5 °C 4.4 °C 1017.2 hPa NW 1.6 km/h 4.8 km/h 93 % 0 mm 0 W/m2
08:08 5.5 °C 4.4 °C 1017.5 hPa NW 1.6 km/h 3.2 km/h 93 % 0 mm 0 W/m2
08:14 5.5 °C 4.4 °C 1017.5 hPa WNW 1.6 km/h 6.4 km/h 93 % 0 mm 0 W/m2
08:21 5.6 °C 4.6 °C 1017.5 hPa NW 4.8 km/h 8 km/h 93 % 0 mm 0 W/m2
08:31 5.6 °C 4.6 °C 1017.5 hPa NW 4.8 km/h 11.3 km/h 93 % 0 mm 0 W/m2
08:37 5.5 °C 4.4 °C 1017.5 hPa NW 3.2 km/h 8 km/h 93 % 0 mm 0 W/m2
08:42 5.5 °C 4.4 °C 1017.8 hPa NW 6.4 km/h 11.3 km/h 93 % 0 mm 5 W/m2
08:51 5.6 °C 4.6 °C 1017.8 hPa WNW 3.2 km/h 8 km/h 93 % 0 mm 7 W/m2
08:56 5.5 °C 4.4 °C 1018.2 hPa NW 4.8 km/h 9.7 km/h 93 % 0 mm 11 W/m2
09:24 5.5 °C 4.3 °C 1018.2 hPa NW 8 km/h 16.1 km/h 92 % 0 mm 37 W/m2
09:41 5.7 °C 4.3 °C 1018.5 hPa WNW 8 km/h 14.5 km/h 91 % 0 mm 51 W/m2
09:47 5.8 °C 4.4 °C 1018.5 hPa WNW 8 km/h 12.9 km/h 91 % 0 mm 51 W/m2
09:59 6 °C 4.5 °C 1018.8 hPa WNW 9.7 km/h 14.5 km/h 90 % 0 mm 51 W/m2
10:07 6.1 °C 4.6 °C 1018.8 hPa NW 11.3 km/h 16.1 km/h 90 % 0 mm 47 W/m2
10:15 6.1 °C 4.4 °C 1019.2 hPa NW 9.7 km/h 14.5 km/h 89 % 0 mm 53 W/m2
10:38 6.3 °C 4.3 °C 1019.5 hPa NW 9.7 km/h 17.7 km/h 87 % 0 mm 49 W/m2
10:44 6.3 °C 4.3 °C 1019.5 hPa NW 11.3 km/h 19.3 km/h 87 % 0 mm 53 W/m2
10:55 6.4 °C 4.2 °C 1019.9 hPa NW 12.9 km/h 17.7 km/h 86 % 0 mm 62 W/m2
11:04 6.4 °C 4.2 °C 1019.9 hPa NW 11.3 km/h 16.1 km/h 86 % 0 mm 79 W/m2
11:11 6.6 °C 4.4 °C 1019.9 hPa NW 9.7 km/h 17.7 km/h 86 % 0 mm 77 W/m2
11:30 6.6 °C 4.3 °C 1019.9 hPa NW 11.3 km/h 17.7 km/h 85 % 0 mm 54 W/m2
11:45 6.7 °C 4.3 °C 1019.9 hPa NNW 11.3 km/h 16.1 km/h 85 % 0 mm 58 W/m2
11:52 6.7 °C 4.5 °C 1019.5 hPa NW 11.3 km/h 17.7 km/h 86 % 0 mm 46 W/m2
11:59 6.7 °C 4.5 °C 1019.5 hPa NNW 9.7 km/h 14.5 km/h 86 % 0 mm 76 W/m2
12:10 6.8 °C 4.6 °C 1019.9 hPa NW 11.3 km/h 16.1 km/h 86 % 0 mm 86 W/m2
12:19 6.9 °C 4.7 °C 1019.9 hPa North 4.8 km/h 12.9 km/h 86 % 0 mm 114 W/m2
12:27 7.1 °C 4.9 °C 1019.9 hPa NNW 6.4 km/h 14.5 km/h 86 % 0 mm 146 W/m2
12:33 7.1 °C 4.7 °C 1020.2 hPa North 8 km/h 14.5 km/h 85 % 0 mm 120 W/m2
12:48 7.1 °C 4.7 °C 1020.2 hPa NW 8 km/h 14.5 km/h 85 % 0 mm 111 W/m2
12:55 7.1 °C 4.9 °C 1020.2 hPa NW 4.8 km/h 12.9 km/h 86 % 0 mm 125 W/m2
13:00 7.2 °C 5 °C 1020.2 hPa NW 4.8 km/h 9.7 km/h 86 % 0 mm 105 W/m2
13:17 7.3 °C 4.9 °C 1020.5 hPa NNW 4.8 km/h 11.3 km/h 85 % 0 mm 153 W/m2
13:26 7.4 °C 5.2 °C 1020.2 hPa NW 3.2 km/h 11.3 km/h 86 % 0 mm 267 W/m2
13:33 7.5 °C 5.2 °C 1020.5 hPa North 3.2 km/h 6.4 km/h 85 % 0 mm 137 W/m2
13:42 7.6 °C 5.2 °C 1020.5 hPa North 6.4 km/h 9.7 km/h 85 % 0 mm 156 W/m2
13:49 7.6 °C 5.2 °C 1020.5 hPa North 3.2 km/h 8 km/h 85 % 0 mm 107 W/m2
13:58 7.6 °C 5.2 °C 1020.5 hPa NNW 1.6 km/h 8 km/h 85 % 0 mm 93 W/m2
14:11 7.4 °C 5.2 °C 1020.9 hPa North 3.2 km/h 8 km/h 86 % 0 mm 63 W/m2
14:25 7.3 °C 5.3 °C 1021.2 hPa NW 6.4 km/h 11.3 km/h 87 % 0 mm 40 W/m2
14:33 7.3 °C 5.3 °C 1021.2 hPa NNW 6.4 km/h 11.3 km/h 87 % 0 mm 32 W/m2
14:47 7.2 °C 5.2 °C 1021.6 hPa NW 4.8 km/h 11.3 km/h 87 % 0 mm 11 W/m2
14:53 7.2 °C 5.3 °C 1021.6 hPa NW 8 km/h 12.9 km/h 88 % 0 mm 12 W/m2
15:05 7.1 °C 5.2 °C 1021.9 hPa NW 8 km/h 11.3 km/h 88 % 0 mm 7 W/m2
15:10 7.1 °C 5.2 °C 1021.9 hPa NW 3.2 km/h 8 km/h 88 % 0 mm 5 W/m2
15:16 7.1 °C 5.4 °C 1021.9 hPa WNW 3.2 km/h 11.3 km/h 89 % 0 mm 5 W/m2
15:30 7 °C 5.4 °C 1022.2 hPa WNW 3.2 km/h 9.7 km/h 90 % 0 mm 0 W/m2
15:35 6.9 °C 5.4 °C 1022.2 hPa NW 4.8 km/h 9.7 km/h 90 % 0 mm 0 W/m2
15:42 6.9 °C 5.4 °C 1022.2 hPa Calm   3.2 km/h 90 % 0.25 mm 0 W/m2
15:46 6.8 °C 5.4 °C 1022.2 hPa NW 3.2 km/h 6.4 km/h 91 % 0.25 mm 0 W/m2
16:10 6.7 °C 5.5 °C 1022.9 hPa NW 8 km/h 12.9 km/h 92 % 0.25 mm 0 W/m2
16:21 6.7 °C 5.5 °C 1022.9 hPa NW 4.8 km/h 8 km/h 92 % 0.25 mm 0 W/m2
16:27 6.7 °C 5.7 °C 1023.2 hPa NW 3.2 km/h 8 km/h 93 % 0.25 mm 0 W/m2
16:32 6.7 °C 5.7 °C 1023.2 hPa WNW 4.8 km/h 9.7 km/h 93 % 0.25 mm 0 W/m2
16:45 6.6 °C 5.6 °C 1023.2 hPa NW 3.2 km/h 8 km/h 93 % 0 mm 0 W/m2
16:51 6.6 °C 5.6 °C 1023.6 hPa NW 4.8 km/h 12.9 km/h 93 % 0 mm 0 W/m2
16:56 6.6 °C 5.6 °C 1023.6 hPa NW 4.8 km/h 11.3 km/h 93 % 0 mm 0 W/m2
17:02 6.6 °C 5.6 °C 1023.6 hPa NW 4.8 km/h 12.9 km/h 93 % 0 mm 0 W/m2
17:09 6.6 °C 5.6 °C 1023.6 hPa NNW 1.6 km/h 8 km/h 93 % 0 mm 0 W/m2
17:18 6.5 °C 5.6 °C 1023.6 hPa NW 4.8 km/h 8 km/h 94 % 0 mm 0 W/m2
17:23 6.5 °C 5.6 °C 1023.6 hPa NW 1.6 km/h 8 km/h 94 % 0 mm 0 W/m2
17:28 6.5 °C 5.6 °C 1023.6 hPa NW 4.8 km/h 8 km/h 94 % 0 mm 0 W/m2
17:34 6.5 °C 5.6 °C 1023.9 hPa NW 6.4 km/h 9.7 km/h 94 % 0 mm 0 W/m2
17:39 6.5 °C 5.6 °C 1023.9 hPa NNW 1.6 km/h 3.2 km/h 94 % 0 mm 0 W/m2
17:50 6.6 °C 5.7 °C 1023.9 hPa NNW 1.6 km/h 8 km/h 94 % 0 mm 0 W/m2
17:58 6.6 °C 5.7 °C 1023.9 hPa North 1.6 km/h 9.7 km/h 94 % 0 mm 0 W/m2
18:03 6.6 °C 5.7 °C 1023.9 hPa Calm   6.4 km/h 94 % 0 mm 0 W/m2
18:18 6.5 °C 5.6 °C 1023.9 hPa Calm   1.6 km/h 94 % 0 mm 0 W/m2
18:23 6.5 °C 5.4 °C 1023.9 hPa Calm   1.6 km/h 93 % 0 mm 0 W/m2
18:38 6.5 °C 5.4 °C 1023.9 hPa NNE 1.6 km/h 6.4 km/h 93 % 0 mm 0 W/m2
18:47 6.6 °C 5.7 °C 1023.9 hPa Calm   3.2 km/h 94 % 0 mm 0 W/m2
18:52 6.6 °C 5.7 °C 1023.9 hPa NNE 1.6 km/h 4.8 km/h 94 % 0 mm 0 W/m2
19:28 6.6 °C 5.7 °C 1024.6 hPa NE 1.6 km/h 8 km/h 94 % 0 mm 0 W/m2
20:02 6.6 °C 5.8 °C 1024.9 hPa North 1.6 km/h 6.4 km/h 95 % 0 mm 0 W/m2
20:07 6.6 °C 5.8 °C 1024.9 hPa North 4.8 km/h 11.3 km/h 95 % 0 mm 0 W/m2
20:12 6.6 °C 5.8 °C 1025.3 hPa Calm   1.6 km/h 95 % 0 mm 0 W/m2
20:18 6.6 °C 5.8 °C 1024.9 hPa Calm   3.2 km/h 95 % 0 mm 0 W/m2
20:23 6.6 °C 5.8 °C 1025.3 hPa Calm   3.2 km/h 95 % 0 mm 0 W/m2
20:30 6.6 °C 5.8 °C 1025.3 hPa Calm   1.6 km/h 95 % 0 mm 0 W/m2
20:40 6.6 °C 5.8 °C 1025.3 hPa Calm   1.6 km/h 95 % 0 mm 0 W/m2
20:57 6.5 °C 5.8 °C 1025.3 hPa Calm   1.6 km/h 95 % 0 mm 0 W/m2
21:05 6.5 °C 5.8 °C 1025.6 hPa Calm   3.2 km/h 95 % 0 mm 0 W/m2
21:15 6.5 °C 5.8 °C 1025.6 hPa Calm   1.6 km/h 95 % 0 mm 0 W/m2
21:23 6.6 °C 5.8 °C 1026 hPa NNW 6.4 km/h 11.3 km/h 95 % 0 mm 0 W/m2
21:28 6.6 °C 5.8 °C 1026 hPa NNW 1.6 km/h 6.4 km/h 95 % 0 mm 0 W/m2
22:05 6.3 °C 5.6 °C 1026.3 hPa Calm   3.2 km/h 95 % 0 mm 0 W/m2
22:12 6.3 °C 5.6 °C 1026.3 hPa Calm   3.2 km/h 95 % 0 mm 0 W/m2
22:20 6.3 °C 5.6 °C 1026.3 hPa NNW 1.6 km/h 8 km/h 95 % 0 mm 0 W/m2
22:34 6.2 °C 5.4 °C 1026.3 hPa Calm   3.2 km/h 95 % 0 mm 0 W/m2
22:46 6.2 °C 5.4 °C 1026 hPa Calm   1.6 km/h 95 % 0 mm 0 W/m2
22:54 6.3 °C 5.7 °C 1026 hPa Calm     96 % 0 mm 0 W/m2
22:59 6.3 °C 5.7 °C 1026 hPa Calm     96 % 0 mm 0 W/m2
23:03 6.3 °C 5.7 °C 1026 hPa Calm     96 % 0 mm 0 W/m2
23:16 6.3 °C 5.7 °C 1026 hPa Calm     96 % 0 mm 0 W/m2
23:21 6.3 °C 5.7 °C 1026 hPa Calm   3.2 km/h 96 % 0 mm 0 W/m2
23:28 6.3 °C 5.7 °C 1026 hPa Calm     96 % 0 mm 0 W/m2
23:36 6.3 °C 5.7 °C 1026.3 hPa Calm     96 % 0 mm 0 W/m2
23:41 6.3 °C 5.7 °C 1026 hPa Calm     96 % 0 mm 0 W/m2
23:44 6.3 °C 5.7 °C 1026.3 hPa Calm     96 % 0 mm 0 W/m2
23:49 6.3 °C 5.7 °C 1026.3 hPa Calm     96 % 0 mm 0 W/m2
23:54 6.3 °C 5.7 °C 1026.3 hPa Calm     96 % 0 mm 0 W/m2
Delerius-Weather
Compliments of Weather Underground - 1.5 mb

Data updates at regular intervals.